createdAt,value
2023-03-29T00:01:35.921Z,-0.09
2023-03-29T00:04:06.441Z,-0.02
2023-03-29T00:06:33.555Z,0.04
2023-03-29T00:09:00.145Z,-0.02
2023-03-29T00:11:27.333Z,0.02
2023-03-29T00:13:53.791Z,0.02
2023-03-29T00:16:20.378Z,-0.01
2023-03-29T00:18:46.855Z,0.02
2023-03-29T00:21:13.312Z,0.03
2023-03-29T00:23:39.813Z,0.01
2023-03-29T00:26:08.136Z,0.04
2023-03-29T00:28:35.045Z,0.03
2023-03-29T00:31:11.743Z,0.05
2023-03-29T00:33:38.907Z,0.09
2023-03-29T00:36:06.043Z,0.10
2023-03-29T00:38:32.766Z,0.08
2023-03-29T00:40:59.579Z,0.07
2023-03-29T00:43:26.464Z,0.13
2023-03-29T00:45:52.955Z,0.13
2023-03-29T00:48:24.644Z,0.14
2023-03-29T00:50:56.237Z,0.18
2023-03-29T00:53:42.812Z,0.16
2023-03-29T00:56:12.261Z,0.21
2023-03-29T00:58:44.508Z,0.24
2023-03-29T01:01:15.442Z,0.25
2023-03-29T01:03:46.370Z,0.16
2023-03-29T01:06:14.461Z,0.14
2023-03-29T01:08:52.980Z,0.20
2023-03-29T01:11:52.809Z,0.21
2023-03-29T01:14:23.128Z,0.29
2023-03-29T01:16:49.643Z,0.25
2023-03-29T01:19:18.961Z,0.20
2023-03-29T01:21:54.891Z,0.20
2023-03-29T01:24:46.130Z,0.22
2023-03-29T01:27:31.729Z,0.22
2023-03-29T01:30:02.043Z,0.21
2023-03-29T01:32:56.954Z,0.13
2023-03-29T01:35:57.525Z,0.08
2023-03-29T01:38:45.886Z,-0.05
2023-03-29T01:41:12.520Z,-0.09
2023-03-29T01:44:28.394Z,-0.00
2023-03-29T01:47:00.752Z,0.12
2023-03-29T01:49:34.502Z,0.20
2023-03-29T01:52:08.062Z,0.25
2023-03-29T01:54:40.935Z,0.31
2023-03-29T01:57:07.580Z,0.15
2023-03-29T01:59:34.706Z,-0.03
2023-03-29T02:02:02.814Z,-0.15
2023-03-29T02:04:31.671Z,-0.26
2023-03-29T02:06:59.295Z,-0.30
2023-03-29T02:09:25.810Z,-0.26
2023-03-29T02:11:52.301Z,-0.22
2023-03-29T02:14:19.269Z,-0.25
2023-03-29T02:16:46.338Z,-0.24
2023-03-29T02:19:13.319Z,-0.17
2023-03-29T02:22:01.478Z,-0.17
2023-03-29T02:24:27.948Z,-0.19
2023-03-29T02:26:54.409Z,-0.16
2023-03-29T02:29:20.870Z,-0.09
2023-03-29T02:31:51.791Z,-0.05
2023-03-29T02:34:27.272Z,-0.07
2023-03-29T02:36:56.644Z,-0.12
2023-03-29T02:39:25.229Z,-0.25
2023-03-29T02:41:52.115Z,-0.32
2023-03-29T02:44:20.612Z,-0.34
2023-03-29T02:46:49.117Z,-0.35
2023-03-29T02:49:15.645Z,-0.41
2023-03-29T02:51:42.112Z,-0.44
2023-03-29T02:54:19.485Z,-0.50
2023-03-29T02:56:50.038Z,-0.53
2023-03-29T02:59:17.681Z,-0.45
2023-03-29T03:01:44.855Z,-0.41
2023-03-29T03:04:11.971Z,-0.37
2023-03-29T03:06:38.501Z,-0.38
2023-03-29T03:09:05.922Z,-0.43
2023-03-29T03:11:33.234Z,-0.43
2023-03-29T03:13:59.879Z,-0.37
2023-03-29T03:16:26.427Z,-0.31
2023-03-29T03:18:54.834Z,-0.24
2023-03-29T03:21:22.167Z,-0.19
2023-03-29T03:23:49.290Z,-0.19
2023-03-29T03:26:16.051Z,-0.23
2023-03-29T03:28:43.116Z,-0.29
2023-03-29T03:31:09.625Z,-0.29
2023-03-29T03:33:36.085Z,-0.26
2023-03-29T03:36:06.256Z,-0.21
2023-03-29T03:38:33.293Z,-0.21
2023-03-29T03:41:00.909Z,-0.19
2023-03-29T03:43:28.634Z,-0.15
2023-03-29T03:45:55.729Z,-0.02
2023-03-29T03:48:22.979Z,0.06
2023-03-29T03:50:50.360Z,0.13
2023-03-29T03:53:16.906Z,0.19
2023-03-29T03:55:50.675Z,0.22
2023-03-29T03:58:17.642Z,0.26
2023-03-29T04:00:45.116Z,0.29
2023-03-29T04:03:11.757Z,0.38
2023-03-29T04:05:41.818Z,0.55
2023-03-29T04:08:08.498Z,0.52
2023-03-29T04:10:35.127Z,0.42
2023-03-29T04:13:05.154Z,0.36
2023-03-29T04:15:32.557Z,0.38
2023-03-29T04:17:59.576Z,0.43
2023-03-29T04:20:27.032Z,0.51
2023-03-29T04:22:53.709Z,0.49
2023-03-29T04:25:21.463Z,0.50
2023-03-29T04:27:49.087Z,0.54
2023-03-29T04:30:15.736Z,0.54
2023-03-29T04:32:42.302Z,0.55
2023-03-29T04:35:09.057Z,0.55
2023-03-29T04:37:35.546Z,0.60
2023-03-29T04:40:02.495Z,0.70
2023-03-29T04:42:29.347Z,0.75
2023-03-29T04:44:55.884Z,0.79
2023-03-29T04:47:22.388Z,0.87
2023-03-29T04:49:48.878Z,0.95
2023-03-29T04:52:15.343Z,1.05
2023-03-29T04:54:41.840Z,1.14
2023-03-29T04:57:08.418Z,1.16
2023-03-29T04:59:35.031Z,1.21
2023-03-29T05:02:03.019Z,1.28
2023-03-29T05:04:29.774Z,1.31
2023-03-29T05:06:57.290Z,1.34
2023-03-29T05:09:24.608Z,1.38
2023-03-29T05:11:51.379Z,1.46
2023-03-29T05:14:17.885Z,1.50
2023-03-29T05:16:44.495Z,1.53
2023-03-29T05:19:11.407Z,1.62
2023-03-29T05:21:38.521Z,1.69
2023-03-29T05:24:05.904Z,1.72
2023-03-29T05:26:32.397Z,1.75
2023-03-29T05:28:58.893Z,1.90
2023-03-29T05:31:25.400Z,2.16
2023-03-29T05:33:51.978Z,2.27
2023-03-29T05:36:19.212Z,2.25
2023-03-29T05:38:46.551Z,2.32
2023-03-29T05:41:13.875Z,2.39
2023-03-29T05:43:40.339Z,2.49
2023-03-29T05:46:07.329Z,2.49
2023-03-29T05:48:33.968Z,2.51
2023-03-29T05:51:00.596Z,2.49
2023-03-29T05:53:28.495Z,2.43
2023-03-29T05:55:55.195Z,2.43
2023-03-29T05:58:21.860Z,2.45
2023-03-29T06:00:52.089Z,2.48
2023-03-29T06:03:21.849Z,2.45
2023-03-29T06:05:49.931Z,2.43
2023-03-29T06:08:16.485Z,2.40
2023-03-29T06:10:43.012Z,2.37
2023-03-29T06:13:09.482Z,2.39
2023-03-29T06:15:35.981Z,2.31
2023-03-29T06:18:03.536Z,2.30
2023-03-29T06:20:30.121Z,2.34
2023-03-29T06:22:56.855Z,2.41
2023-03-29T06:25:23.406Z,2.53
2023-03-29T06:27:49.874Z,2.61
2023-03-29T06:30:16.897Z,2.61
2023-03-29T06:32:43.474Z,2.59
2023-03-29T06:35:10.240Z,2.70
2023-03-29T06:37:37.068Z,2.78
2023-03-29T06:40:06.333Z,2.89
2023-03-29T06:42:33.039Z,3.00
2023-03-29T06:44:59.502Z,3.08
2023-03-29T06:47:30.784Z,3.03
2023-03-29T06:49:57.380Z,2.97
2023-03-29T06:52:23.840Z,2.97
2023-03-29T06:54:50.552Z,2.98
2023-03-29T06:57:17.733Z,3.06
2023-03-29T06:59:44.348Z,3.21
2023-03-29T07:02:12.461Z,3.32
2023-03-29T07:04:39.563Z,3.41
2023-03-29T07:07:07.698Z,3.35
2023-03-29T07:09:35.875Z,3.38
2023-03-29T07:12:02.435Z,3.44
2023-03-29T07:14:30.035Z,3.43
2023-03-29T07:16:58.326Z,3.49
2023-03-29T07:19:27.212Z,3.50
2023-03-29T07:21:54.270Z,3.59
2023-03-29T07:24:21.413Z,3.64
2023-03-29T07:27:00.002Z,3.62
2023-03-29T07:29:29.558Z,3.73
2023-03-29T07:31:56.376Z,3.82
2023-03-29T07:34:22.843Z,3.90
2023-03-29T07:36:49.321Z,3.98
2023-03-29T07:39:15.824Z,4.09
2023-03-29T07:41:42.295Z,4.26
2023-03-29T07:44:09.404Z,4.39
2023-03-29T07:46:36.347Z,4.44
2023-03-29T07:49:03.563Z,4.50
2023-03-29T07:51:30.135Z,4.45
2023-03-29T07:53:56.602Z,4.57
2023-03-29T07:56:23.324Z,4.69
2023-03-29T07:58:49.820Z,4.65
2023-03-29T08:01:18.786Z,4.64
2023-03-29T08:03:45.935Z,4.79
2023-03-29T08:06:12.486Z,4.98
2023-03-29T08:08:39.024Z,5.18
2023-03-29T08:11:07.133Z,5.18
2023-03-29T08:13:33.648Z,5.27
2023-03-29T08:16:00.225Z,5.27
2023-03-29T08:18:26.735Z,5.31
2023-03-29T08:20:53.264Z,5.54
2023-03-29T08:23:19.715Z,5.87
2023-03-29T08:25:47.045Z,6.07
2023-03-29T08:28:13.660Z,6.25
2023-03-29T08:30:40.161Z,6.49
2023-03-29T08:33:06.697Z,6.50
2023-03-29T08:35:33.284Z,6.38
2023-03-29T08:37:59.799Z,6.23
2023-03-29T08:40:27.229Z,6.33
2023-03-29T08:43:04.746Z,6.57
2023-03-29T08:45:35.438Z,6.82
2023-03-29T08:48:22.094Z,6.96
2023-03-29T08:50:56.467Z,6.99
2023-03-29T08:53:24.300Z,6.93
2023-03-29T08:55:50.842Z,7.02
2023-03-29T08:58:24.334Z,6.87
2023-03-29T09:00:52.017Z,6.75
2023-03-29T09:03:26.143Z,6.60
2023-03-29T09:06:06.706Z,6.61
2023-03-29T09:08:37.242Z,6.84
2023-03-29T09:11:26.003Z,7.10
2023-03-29T09:14:10.898Z,7.31
2023-03-29T09:16:58.523Z,7.57
2023-03-29T09:19:46.504Z,7.84
2023-03-29T09:22:19.728Z,8.07
2023-03-29T09:24:53.972Z,8.25
2023-03-29T09:27:27.321Z,8.37
2023-03-29T09:30:02.425Z,8.34
2023-03-29T09:32:36.440Z,8.40
2023-03-29T09:35:21.551Z,8.43
2023-03-29T09:37:48.564Z,8.55
2023-03-29T09:40:21.262Z,8.93
2023-03-29T09:42:48.437Z,9.23
2023-03-29T09:45:14.942Z,9.33
2023-03-29T09:47:55.498Z,9.30
2023-03-29T09:50:35.240Z,9.34
2023-03-29T09:53:01.742Z,9.44
2023-03-29T09:55:32.324Z,9.67
2023-03-29T09:58:00.730Z,9.45
2023-03-29T10:00:27.279Z,9.18
2023-03-29T10:02:54.654Z,8.50
2023-03-29T10:05:21.909Z,7.99
2023-03-29T10:07:54.292Z,7.91
2023-03-29T10:10:27.788Z,7.86
2023-03-29T10:12:56.841Z,8.18
2023-03-29T10:15:29.613Z,8.58
2023-03-29T10:18:05.571Z,8.87
2023-03-29T10:20:34.721Z,9.56
2023-03-29T10:23:01.186Z,9.99
2023-03-29T10:25:31.476Z,9.59
2023-03-29T10:28:13.045Z,9.54
2023-03-29T10:30:40.046Z,10.43
2023-03-29T10:33:06.947Z,11.62
2023-03-29T10:35:38.066Z,12.31
2023-03-29T10:38:07.560Z,12.44
2023-03-29T10:40:35.135Z,12.52
2023-03-29T10:43:12.208Z,13.06
2023-03-29T10:45:39.000Z,13.07
2023-03-29T10:48:06.979Z,15.32
2023-03-29T10:50:35.034Z,17.83
2023-03-29T10:53:02.238Z,19.49
2023-03-29T10:55:33.749Z,20.18
2023-03-29T10:58:12.391Z,20.90
2023-03-29T11:01:05.724Z,21.86
2023-03-29T11:04:07.057Z,22.41
2023-03-29T11:07:12.524Z,22.76
2023-03-29T11:09:57.060Z,22.43
2023-03-29T11:12:44.502Z,21.76
2023-03-29T11:15:48.116Z,21.03
2023-03-29T11:18:27.177Z,20.91
2023-03-29T11:21:11.674Z,20.04
2023-03-29T11:23:44.106Z,18.82
2023-03-29T11:26:20.867Z,17.46
2023-03-29T11:28:56.348Z,16.12
2023-03-29T11:31:41.368Z,14.79
2023-03-29T11:34:17.539Z,13.74
2023-03-29T11:36:44.558Z,13.08
2023-03-29T11:39:42.263Z,12.64
2023-03-29T11:42:20.724Z,12.59
2023-03-29T11:44:47.491Z,12.58
2023-03-29T11:47:18.857Z,12.77
2023-03-29T11:49:45.408Z,12.97
2023-03-29T11:52:15.202Z,13.14
2023-03-29T11:54:53.728Z,13.24
2023-03-29T11:57:29.090Z,13.45
2023-03-29T12:00:05.962Z,13.95
2023-03-29T12:02:39.355Z,14.13
2023-03-29T12:05:20.237Z,14.04
2023-03-29T12:08:23.015Z,13.72
2023-03-29T12:11:27.394Z,13.37
2023-03-29T12:13:57.264Z,13.09
2023-03-29T12:16:47.229Z,12.78
2023-03-29T12:19:23.168Z,12.75
2023-03-29T12:21:50.810Z,12.61
2023-03-29T12:24:17.946Z,12.51
2023-03-29T12:26:48.720Z,12.89
2023-03-29T12:29:37.429Z,12.72
2023-03-29T12:32:28.301Z,12.59
2023-03-29T12:35:16.157Z,12.51
2023-03-29T12:37:58.254Z,12.76
2023-03-29T12:40:26.185Z,12.89
2023-03-29T12:42:54.230Z,13.29
2023-03-29T12:45:28.435Z,13.87
2023-03-29T12:47:54.945Z,14.06
2023-03-29T12:50:47.729Z,14.11
2023-03-29T12:53:18.914Z,14.11
2023-03-29T12:55:51.117Z,13.88
2023-03-29T12:58:39.750Z,13.76
2023-03-29T13:01:23.827Z,13.61
2023-03-29T13:03:57.670Z,13.58
2023-03-29T13:06:29.061Z,13.56
2023-03-29T13:09:00.528Z,13.69
2023-03-29T13:11:31.505Z,13.79
2023-03-29T13:13:58.178Z,13.74
2023-03-29T13:16:34.291Z,13.34
2023-03-29T13:19:13.931Z,13.01
2023-03-29T13:21:59.108Z,12.97
2023-03-29T13:25:01.232Z,13.82
2023-03-29T13:27:47.777Z,15.52
2023-03-29T13:30:31.755Z,15.93
2023-03-29T13:33:23.121Z,15.82
2023-03-29T13:36:30.218Z,15.46
2023-03-29T13:39:01.606Z,15.42
2023-03-29T13:41:28.775Z,15.42
2023-03-29T13:43:55.762Z,15.70
2023-03-29T13:46:35.198Z,16.08
2023-03-29T13:49:25.039Z,15.95
2023-03-29T13:51:54.454Z,15.70
2023-03-29T13:54:40.615Z,15.38
2023-03-29T13:57:19.086Z,15.11
2023-03-29T14:00:00.480Z,14.71
2023-03-29T14:02:36.224Z,14.52
2023-03-29T14:05:04.153Z,14.30
2023-03-29T14:07:30.642Z,14.25
2023-03-29T14:09:58.140Z,14.14
2023-03-29T14:12:24.751Z,14.12
2023-03-29T14:14:58.910Z,14.15
2023-03-29T14:17:26.028Z,14.10
2023-03-29T14:19:53.321Z,13.94
2023-03-29T14:22:20.377Z,13.93
2023-03-29T14:24:49.149Z,13.82
2023-03-29T14:27:15.801Z,13.86
2023-03-29T14:29:44.313Z,14.11
2023-03-29T14:32:17.808Z,14.50
2023-03-29T14:34:48.145Z,14.93
2023-03-29T14:37:18.735Z,15.65
2023-03-29T14:39:45.713Z,16.01
2023-03-29T14:42:16.227Z,16.22
2023-03-29T14:44:42.732Z,16.90
2023-03-29T14:47:09.218Z,16.82
2023-03-29T14:49:35.764Z,16.57
2023-03-29T14:52:02.260Z,16.22
2023-03-29T14:54:29.677Z,16.12
2023-03-29T14:56:56.241Z,16.31
2023-03-29T14:59:36.717Z,16.64
2023-03-29T15:02:03.522Z,16.73
2023-03-29T15:04:36.094Z,17.03
2023-03-29T15:07:05.476Z,18.06
2023-03-29T15:09:34.104Z,18.98
2023-03-29T15:12:01.884Z,18.52
2023-03-29T15:14:33.612Z,18.28
2023-03-29T15:17:33.462Z,17.70
2023-03-29T15:20:24.091Z,16.49
2023-03-29T15:23:00.372Z,15.65
2023-03-29T15:25:37.716Z,15.12
2023-03-29T15:28:04.378Z,14.59
2023-03-29T15:30:41.847Z,14.18
2023-03-29T15:33:16.307Z,13.83
2023-03-29T15:35:43.660Z,13.27
2023-03-29T15:38:12.297Z,12.92
2023-03-29T15:40:38.819Z,12.58
2023-03-29T15:43:05.929Z,12.27
2023-03-29T15:45:32.485Z,12.03
2023-03-29T15:48:01.958Z,11.77
2023-03-29T15:50:28.651Z,11.61
2023-03-29T15:53:08.674Z,11.39
2023-03-29T15:55:44.631Z,11.05
2023-03-29T15:58:15.495Z,10.76
2023-03-29T16:00:43.462Z,10.54
2023-03-29T16:03:14.813Z,10.37
2023-03-29T16:05:44.916Z,10.14
2023-03-29T16:08:12.117Z,9.97
2023-03-29T16:10:39.017Z,9.70
2023-03-29T16:13:05.644Z,9.50
2023-03-29T16:15:32.355Z,9.51
2023-03-29T16:17:58.913Z,9.48
2023-03-29T16:20:25.704Z,9.35
2023-03-29T16:22:54.136Z,9.31
2023-03-29T16:25:22.737Z,9.25
2023-03-29T16:27:49.381Z,9.28
2023-03-29T16:30:16.048Z,9.25
2023-03-29T16:32:42.792Z,9.22
2023-03-29T16:35:22.454Z,9.15
2023-03-29T16:37:48.979Z,9.04
2023-03-29T16:40:16.502Z,9.00
2023-03-29T16:42:42.972Z,8.92
2023-03-29T16:45:12.544Z,8.91
2023-03-29T16:47:39.448Z,8.76
2023-03-29T16:50:08.076Z,8.68
2023-03-29T16:52:34.697Z,8.51
2023-03-29T16:55:01.674Z,8.40
2023-03-29T16:57:28.557Z,8.27
2023-03-29T16:59:55.751Z,8.19
2023-03-29T17:02:22.220Z,8.08
2023-03-29T17:04:48.779Z,8.03
2023-03-29T17:07:15.697Z,7.92
2023-03-29T17:09:42.525Z,7.81
2023-03-29T17:12:09.109Z,7.68
2023-03-29T17:14:35.858Z,7.60
2023-03-29T17:17:02.315Z,7.49
2023-03-29T17:19:28.777Z,7.39
2023-03-29T17:21:55.296Z,7.35
2023-03-29T17:24:21.759Z,7.30
2023-03-29T17:26:48.227Z,7.18
2023-03-29T17:29:14.701Z,7.05
2023-03-29T17:31:47.454Z,6.90
2023-03-29T17:34:15.220Z,6.80
2023-03-29T17:36:41.688Z,6.77
2023-03-29T17:39:09.565Z,6.63
2023-03-29T17:41:36.329Z,6.47
2023-03-29T17:44:02.829Z,6.33
2023-03-29T17:46:29.406Z,6.18
2023-03-29T17:48:56.091Z,6.09
2023-03-29T17:51:23.687Z,5.99
2023-03-29T17:53:52.349Z,5.94
2023-03-29T17:56:22.770Z,5.81
2023-03-29T17:58:49.467Z,5.73
2023-03-29T18:01:16.739Z,5.70
2023-03-29T18:03:43.355Z,5.64
2023-03-29T18:06:09.820Z,5.65
2023-03-29T18:08:36.300Z,5.65
2023-03-29T18:11:11.560Z,5.64
2023-03-29T18:13:39.731Z,5.61
2023-03-29T18:16:07.536Z,5.59
2023-03-29T18:18:34.622Z,5.58
2023-03-29T18:21:01.161Z,5.59
2023-03-29T18:23:27.652Z,5.56
2023-03-29T18:26:02.819Z,5.56
2023-03-29T18:28:30.485Z,5.53
2023-03-29T18:30:57.040Z,5.47
2023-03-29T18:33:23.535Z,5.40
2023-03-29T18:35:53.221Z,5.36
2023-03-29T18:38:21.219Z,5.33
2023-03-29T18:40:48.160Z,5.29
2023-03-29T18:43:14.702Z,5.32
2023-03-29T18:45:41.421Z,5.27
2023-03-29T18:48:08.726Z,5.24
2023-03-29T18:50:36.066Z,5.16
2023-03-29T18:53:02.553Z,5.15
2023-03-29T18:55:29.840Z,5.21
2023-03-29T18:57:56.400Z,5.20
2023-03-29T19:00:22.940Z,5.24
2023-03-29T19:02:49.595Z,5.25
2023-03-29T19:05:16.244Z,5.19
2023-03-29T19:07:42.696Z,5.24
2023-03-29T19:10:09.271Z,5.27
2023-03-29T19:12:36.005Z,5.32
2023-03-29T19:15:02.512Z,5.36
2023-03-29T19:17:29.026Z,5.34
2023-03-29T19:19:56.714Z,5.31
2023-03-29T19:22:23.382Z,5.36
2023-03-29T19:24:49.990Z,5.39
2023-03-29T19:27:16.525Z,5.42
2023-03-29T19:29:43.006Z,5.42
2023-03-29T19:32:09.487Z,5.43
2023-03-29T19:34:36.154Z,5.46
2023-03-29T19:37:02.609Z,5.49
2023-03-29T19:39:29.818Z,5.44
2023-03-29T19:41:56.499Z,5.43
2023-03-29T19:44:28.002Z,5.40
2023-03-29T19:46:54.567Z,5.45
2023-03-29T19:49:21.068Z,5.43
2023-03-29T19:51:48.044Z,5.36
2023-03-29T19:54:14.638Z,5.34
2023-03-29T19:56:42.665Z,5.31
2023-03-29T19:59:11.222Z,5.29
2023-03-29T20:01:39.232Z,5.25
2023-03-29T20:04:06.296Z,5.29
2023-03-29T20:06:32.874Z,5.28
2023-03-29T20:08:59.402Z,5.29
2023-03-29T20:11:26.009Z,5.24
2023-03-29T20:13:52.530Z,5.21
2023-03-29T20:16:19.279Z,5.15
2023-03-29T20:18:46.423Z,5.09
2023-03-29T20:21:14.091Z,5.00
2023-03-29T20:23:40.718Z,4.92
2023-03-29T20:26:07.526Z,4.82
2023-03-29T20:28:34.597Z,4.74
2023-03-29T20:31:05.075Z,4.67
2023-03-29T20:33:31.849Z,4.57
2023-03-29T20:35:58.526Z,4.52
2023-03-29T20:38:25.208Z,4.40
2023-03-29T20:40:51.688Z,4.27
2023-03-29T20:43:20.686Z,4.21
2023-03-29T20:45:53.613Z,4.23
2023-03-29T20:48:30.098Z,4.27
2023-03-29T20:50:57.693Z,4.26
2023-03-29T20:53:25.028Z,4.28
2023-03-29T20:55:51.747Z,4.30
2023-03-29T20:58:18.256Z,4.31
2023-03-29T21:00:45.277Z,4.27
2023-03-29T21:03:12.235Z,4.25
2023-03-29T21:05:39.021Z,4.25
2023-03-29T21:08:05.658Z,4.23
2023-03-29T21:10:32.185Z,4.22
2023-03-29T21:13:02.349Z,4.21
2023-03-29T21:15:31.086Z,4.15
2023-03-29T21:17:57.943Z,4.16
2023-03-29T21:20:24.626Z,4.15
2023-03-29T21:22:51.595Z,4.10
2023-03-29T21:25:18.327Z,4.06
2023-03-29T21:27:44.931Z,3.99
2023-03-29T21:30:11.753Z,4.02
2023-03-29T21:32:38.342Z,4.02
2023-03-29T21:35:05.305Z,4.00
2023-03-29T21:37:31.794Z,4.05
2023-03-29T21:39:58.289Z,4.10
2023-03-29T21:42:24.837Z,4.08
2023-03-29T21:44:51.328Z,4.11
2023-03-29T21:47:17.812Z,4.10
2023-03-29T21:49:44.345Z,4.14
2023-03-29T21:52:10.898Z,4.20
2023-03-29T21:54:37.360Z,4.28
2023-03-29T21:57:03.932Z,4.36
2023-03-29T21:59:30.763Z,4.39
2023-03-29T22:01:57.254Z,4.44
2023-03-29T22:04:35.889Z,4.46
2023-03-29T22:07:03.418Z,4.49
2023-03-29T22:09:29.890Z,4.53
2023-03-29T22:11:56.898Z,4.59
2023-03-29T22:14:23.353Z,4.64
2023-03-29T22:16:49.929Z,4.68
2023-03-29T22:19:16.490Z,4.67
2023-03-29T22:21:44.029Z,4.69
2023-03-29T22:24:10.540Z,4.71
2023-03-29T22:26:36.997Z,4.72
2023-03-29T22:29:03.533Z,4.72
2023-03-29T22:31:30.295Z,4.71
2023-03-29T22:33:58.237Z,4.72
2023-03-29T22:36:26.398Z,4.74
2023-03-29T22:38:52.942Z,4.74
2023-03-29T22:41:20.216Z,4.74
2023-03-29T22:43:46.763Z,4.75
2023-03-29T22:46:13.890Z,4.74
2023-03-29T22:48:40.653Z,4.69
2023-03-29T22:51:07.127Z,4.67
2023-03-29T22:53:33.802Z,4.67
2023-03-29T22:56:00.771Z,4.66
2023-03-29T22:58:29.236Z,4.64
2023-03-29T23:00:56.890Z,4.61
2023-03-29T23:03:23.707Z,4.63
2023-03-29T23:05:57.019Z,4.65
2023-03-29T23:08:24.256Z,4.67
2023-03-29T23:10:51.039Z,4.69
2023-03-29T23:13:19.953Z,4.70
2023-03-29T23:15:47.967Z,4.73
2023-03-29T23:18:18.211Z,4.76
2023-03-29T23:20:47.079Z,4.81
2023-03-29T23:23:13.945Z,4.88
2023-03-29T23:25:40.426Z,4.94
2023-03-29T23:28:06.950Z,4.91
2023-03-29T23:30:35.764Z,4.93
2023-03-29T23:33:02.497Z,4.91
2023-03-29T23:35:29.066Z,4.93
2023-03-29T23:37:55.588Z,4.98
2023-03-29T23:40:22.117Z,4.99
2023-03-29T23:42:48.891Z,5.02
2023-03-29T23:45:18.084Z,4.98
2023-03-29T23:47:44.979Z,4.96
2023-03-29T23:50:13.408Z,4.96
2023-03-29T23:52:40.722Z,4.90
2023-03-29T23:55:08.512Z,4.91
2023-03-29T23:57:36.909Z,4.88
